ポイント・サリンス国際空港の過去48時間の天気

ポイント・サリンス国際空港 (Point Salines Airport)

現在時刻: 5/25 21:52 AST (5/26 01:52 UTC) 以下の時間は現地時間です。

過去48時間のMETAR気象情報
時間 風向 風速(m/s) 視程 気温(℃) 湿度(%) 気圧(hPa) 天気現象
25 21:00 8 10km以上 28 74 1015
25 20:00 8 10km以上 28 74 1014
25 19:00 8 10km以上 28 74 1014
25 18:00 9 10km以上 28 74 1014
25 17:00 - - 10km以上 30 70 1013
25 16:00 10 10km以上 30 70 1013
25 15:00 11 10km以上 30 66 1013
25 14:00 10 10km以上 30 70 1014
25 13:00 10 10km以上 30 70 1015
25 12:00 11 10km以上 30 70 1015
25 11:00 10 10km以上 30 70 1015
25 10:00 10 10km以上 30 70 1015
25 09:00 11 10km以上 29 74 1015
25 08:00 9 10km以上 29 74 1014
25 07:00 8 10km以上 28 79 1014
25 06:00 5 10km以上 27 84 1014
25 05:00 8 10km以上 27 84 1013
25 03:00 東北東 6 10km以上 27 84 1013
25 01:00 5 10km以上 27 84 1013
25 00:00 6 8000m 28 79 1014 周辺でしゅう雨 周辺でしゅう雨
24 23:00 7 10km以上 28 79 1015 周辺でしゅう雨 周辺でしゅう雨
24 22:00 8 10km以上 28 79 1015
24 21:00 8 10km以上 28 79 1014 周辺でしゅう雨
24 20:00 8 10km以上 28 79 1013 周辺でしゅう雨
24 19:00 7 10km以上 28 79 1013 周辺でしゅう雨
24 18:00 10 10km以上 28 79 1012 周辺でしゅう雨
24 17:00 10 10km以上 29 74 1012 周辺でしゅう雨
24 16:00 11 10km以上 30 66 1012
24 15:00 10 10km以上 30 66 1012 周辺でしゅう雨
24 14:00 8 10km以上 29 74 1013 弱いしゅう雨
24 13:00 9 10km以上 30 70 1014
24 12:00 9 10km以上 29 74 1014
24 11:00 8 10km以上 30 70 1015
24 10:00 9 10km以上 29 70 1015
24 09:00 8 10km以上 28 84 1015
24 08:00 6 10km以上 27 89 1015 弱い雨
24 07:00 東北東 5 10km以上 27 84 1014 弱い雨
24 06:00 東北東 5 10km以上 27 84 1014 弱いしゅう雨
24 05:00 東北東 3 10km以上 27 84 1013 周辺でしゅう雨
24 04:00 8 10km以上 27 84 1013
24 02:00 6 10km以上 27 84 1013
23 23:00 9 10km以上 27 84 1014
23 22:00 東北東 4 10km以上 27 84 1014 周辺でしゅう雨
TGPY 260100Z 10016KT 9999 FEW017 BKN035 28/23 Q1015 NOSIG
TGPY 260000Z 10015KT 9999 FEW018 BKN036 28/23 Q1014 NOSIG
TGPY 252300Z 09015KT 9999 FEW018 BKN036 28/23 Q1014 NOSIG
TGPY 252200Z 09017KT 9999 FEW018 BKN035 28/23 Q1014 NOSIG
TGPY 252100Z 90915KT 9999 FEW018 BKN035 30/24 Q1013 NOSIG
TGPY 252000Z 09020KT 9999 FEW018 SCT035 30/24 Q1013 NOSIG
TGPY 251900Z 10022KT 9999 FEW018 SCT036 30/23 Q1013 NOSIG
TGPY 251800Z 10020KT 9999 FEW018 30/24 Q1014 NOSIG
TGPY 251700Z 09020KT 9999 FEW018 30/24 Q1015 NOSIG
TGPY 251600Z 09022KT 9999 FEW018 30/24 Q1015 NOSIG
TGPY 251500Z 09020KT 9999 FEW018 30/24 Q1015 NOSIG
TGPY 251400Z 09020KT 9999 FEW018 30/24 Q1015 NOSIG
TGPY 251300Z 09021KT 9999 FEW018 29/24 Q1015 NOSIG
TGPY 251200Z 09017KT 9999 FEW018 29/24 Q1014 NOSIG
TGPY 251100Z 09016KT 9999 FEW018 BKN035 28/24 Q1014 NOSIG
TGPY 251000Z 09010KT 9999 FEW017 BKN035 27/24 Q1014 NOSIG
TGPY 250900Z 09015KT 9999 FEW017 27/24 Q1013
TGPY 250700Z 07012KT 9999 FEW018 27/24 Q1013
TGPY 250500Z 08010KT 9999 FEW017 27/24 Q1013
TGPY 250400Z 09012KT 8000 VCSH BKN016 28/24 Q1014 VCSH-E
TGPY 250300Z 09014KT 9999 VCSH BKN017 SCT034 28/24 Q1015 VCSH-E
TGPY 250200Z 09015KT 9999 SCT017 SCT036 28/24 Q1015 NOSIG
TGPY 250100Z 08016KT 9999 VCSH SCT017 BKN036 28/24 Q1014 NOSIG RMK VCSH-N
TGPY 250000Z 08015KT 9999 VCSH SCT017 BKN036 28/24 Q1013 NOSIG RMK VCSH-N/SW
TGPY 242300Z 08013KT 9999 VCSH FEW018 BKN036 28/24 Q1013 NOSIG RMK VCSH-N-E/W
TGPY 242200Z 08020KT 9999 VCSH FEW018 BKN036 28/24 Q1012 NOSIG RMK VCSH-NE
TGPY 242100Z 08020KT 9999 VCSH FEW018 BKN036 29/24 Q1012 NOSIG RMK VCSH-NE
TGPY 242000Z 09021KT 9999 FEW018 SCT036 BKN080 30/23 Q1012 NOSIG
TGPY 241900Z 08020KT 9999 VCSH FEW018 SCT036 30/23 Q1012 NOSIG RMK VCSH-N-NE
TGPY 241800Z 08015KT 9999 -SHRA FEW018 BKN036 29/24 Q1013 NOSIG
TGPY 241700Z 08018KT 9999 FEW018 BKN036 30/24 Q1014 NOSIG
TGPY 241600Z 09018KT 9999 FEW018 BKN035 29/24 Q1014 NOSIG
TGPY 241500Z 09015KT 99999 FEW018 BKN035 30/24 Q1015 NOSIG
TGPY 241400Z 08017KT 9999 FEW018 BKN036 29/23 Q1015 NOSIG
TGPY 241300Z 08015KT 9999 FEW018 BKN036 28/25 Q1015 TEMPO SHRA
TGPY 241200Z 08012KT 9999 -RA FEW018 BKN036 27/25 Q1015 TEMPO SHRA
TGPY 241100Z 07010KT 9999 -RA FEW018 BKN036 27/24 Q1014 TEMPO SHRA
TGPY 241000Z 07010KT 9999 -SHRA FEW018 BKN040 27/24 Q1014 NOSIG
TGPY 240900Z 07006KT 9999 VCSH SCT018 SCT040 27/24 Q1013 NOSIG RMK VCSH-ALQDS
TGPY 240800Z 08015KT 9999 FEW018 BKN040 27/24 Q1013 NOSIG
TGPY 240600Z 08011KT 9999 FEW018 SCT040 27/24 Q1013 NOSIG RMK VCSH-W
TGPY 240300Z 08017KT 9999 FEW018 SCT042 27/24 Q1014 NOSIG
TGPY 240200Z 07008KT 9999 VCSH FEW018 SCT042 27/24 Q1014 NOSIG RMK VCSH-SW/W